Terminal Aerodrome Forecast
Issued by NWS

Home | Current Version | Previous Version | Text Only | Print | Product List | Glossary On
Versions: 1 2 3 4 5 6 7 8 9 10 11 12 13 14 15
000
FTUS46 KOTX 261139
TAFMWH
TAF
KMWH 261139Z 2612/2712 21004KT 6SM -SHSN SCT030 OVC050
     FM261400 VRB02KT 4SM -SN SCT012 OVC025
     FM261600 VRB03KT 2SM -SN BR OVC012
     FM262000 02005KT 5SM -SHSN BKN015 OVC040
     FM270000 30005KT P6SM VCSH SCT020 OVC040=

USA.gov is the U.S. government's official web portal to all federal, state and local government web resources and services.